Meridian — EI6085 — position and weather

sailwx.info

Track history (hours):
 
Tides and Currents Weather Stations Pressure Air Temp Water Temp Dewpoint Dewpoint Depression Visibility Wind Speed Wind Dir Waves Ship Positions

Meridian

Last reported at 2017-Jun-28 10:29 UTC. Time now 2017-Jun-28 10:33 UTC.
Position N 54°35' W 008°28'.

Length 12 m.

Type: Fishing. MMSI: 250107450.

Date/timePositionNaut miles runAvg speedWind from/ knotsBaromVisibWave heightAir tempDewpointWater temp
2017-Jun-28 10:29N 54°35' W 008°28'3 1.9
2017-Jun-28 09:11N 54°38' W 008°26'0 1.9
2017-Jun-28 08:55N 54°38' W 008°27'0 0.0
2017-Jun-28 08:28N 54°38' W 008°27'0 0.5
2017-Jun-28 08:00N 54°38' W 008°27'0 0.0
2017-Jun-27 11:04N 54°38' W 008°27'0 0.0
2017-Jun-27 10:58N 54°38' W 008°27'0 0.4
2017-Jun-27 10:29N 54°38' W 008°27'2 4.4
2017-Jun-27 10:00N 54°36' W 008°28'1 2.2
2017-Jun-27 09:30N 54°37' W 008°27'1 1.9
2017-Jun-27 08:57N 54°38' W 008°27'0 0.0
2017-Jun-27 08:29N 54°38' W 008°27'0 0.2
2017-Jun-27 07:56N 54°38' W 008°27'0 0.0
2017-Jun-25 13:29N 54°38' W 008°27'0 0.4
2017-Jun-25 12:59N 54°38' W 008°27'2 3.5
2017-Jun-25 12:29N 54°36' W 008°27'2 3.0
2017-Jun-25 11:58N 54°36' W 008°29'1 2.9
2017-Jun-25 11:27N 54°35' W 008°32'1 2.7
2017-Jun-25 10:54N 54°36' W 008°34'0 1.1
2017-Jun-25 10:29N 54°36' W 008°35'0 0.1
2017-Jun-25 09:02N 54°36' W 008°35'0 0.4
2017-Jun-25 09:00N 54°36' W 008°35'4 7.2
2017-Jun-25 08:30N 54°36' W 008°29'1 2.6
2017-Jun-25 07:59N 54°37' W 008°27'2 3.0
2017-Jun-25 07:28N 54°38' W 008°27'0 0.2
2017-Jun-25 07:00N 54°38' W 008°27'0 0.0
2017-Jun-24 16:06N 54°38' W 008°27'0 0.0
2017-Jun-24 15:59N 54°38' W 008°27'1 1.7
2017-Jun-24 15:29N 54°37' W 008°27'3 5.0
2017-Jun-24 14:56N 54°34' W 008°26'1 0.6
2017-Jun-24 13:59N 54°35' W 008°25'3 3.5
2017-Jun-24 13:13N 54°34' W 008°30'2 8.3
2017-Jun-24 12:58N 54°35' W 008°33'2 4.5
2017-Jun-24 12:28N 54°36' W 008°36'1 0.9
2017-Jun-24 11:16N 54°36' W 008°34'4 3.1
2017-Jun-24 09:59N 54°36' W 008°28'1 1.1
2017-Jun-24 09:29N 54°37' W 008°27'0 0.4
2017-Jun-24 09:00N 54°37' W 008°27'2 2.4
2017-Jun-24 08:23N 54°38' W 008°27'0 0.0
2017-Jun-24 07:59N 54°38' W 008°27'0 0.0
2017-Jun-24 07:26N 54°38' W 008°27'  
2017-Jun-20 15:05N 54°38' W 008°27'0 0.1
2017-Jun-20 15:00N 54°38' W 008°27'1 2.5
2017-Jun-20 14:29N 54°37' W 008°27'3 1.1
2017-Jun-20 11:38N 54°34' W 008°29'1 4.8
2017-Jun-20 11:31N 54°34' W 008°29'1 1.6
2017-Jun-20 10:51N 54°35' W 008°27'0 1.0
2017-Jun-20 10:28N 54°35' W 008°28'0 0.1
2017-Jun-20 09:59N 54°35' W 008°28'1 2.6
2017-Jun-20 09:24N 54°36' W 008°29'2 3.8
2017-Jun-20 08:58N 54°37' W 008°27'0 1.0
2017-Jun-20 08:30N 54°37' W 008°26'1 2.0
2017-Jun-20 08:00N 54°38' W 008°27'0 0.1
2017-Jun-20 07:29N 54°38' W 008°27'0 0.0
2017-Jun-19 10:15N 54°38' W 008°27'0 0.0
2017-Jun-19 10:00N 54°38' W 008°27'  
Track history (hours):
 
Tides and Currents Weather Stations Pressure Air Temp Water Temp Dewpoint Dewpoint Depression Visibility Wind Speed Wind Dir Waves Ship Positions

Meridian

Last reported at 2017-Jun-28 10:29 UTC. Time now 2017-Jun-28 10:33 UTC.
Position N 54°35' W 008°28'.

Length 12 m.

Type: Fishing. MMSI: 250107450.

Date/timePositionNaut miles runAvg speedWind from/ knotsBaromVisibWave heightAir tempDewpointWater temp
2017-Jun-28 10:29N 54°35' W 008°28'3 1.9
2017-Jun-28 09:11N 54°38' W 008°26'0 1.9
2017-Jun-28 08:55N 54°38' W 008°27'0 0.0
2017-Jun-28 08:28N 54°38' W 008°27'0 0.5
2017-Jun-28 08:00N 54°38' W 008°27'0 0.0
2017-Jun-27 11:04N 54°38' W 008°27'0 0.0
2017-Jun-27 10:58N 54°38' W 008°27'0 0.4
2017-Jun-27 10:29N 54°38' W 008°27'2 4.4
2017-Jun-27 10:00N 54°36' W 008°28'1 2.2
2017-Jun-27 09:30N 54°37' W 008°27'1 1.9
2017-Jun-27 08:57N 54°38' W 008°27'0 0.0
2017-Jun-27 08:29N 54°38' W 008°27'0 0.2
2017-Jun-27 07:56N 54°38' W 008°27'0 0.0
2017-Jun-25 13:29N 54°38' W 008°27'0 0.4
2017-Jun-25 12:59N 54°38' W 008°27'2 3.5
2017-Jun-25 12:29N 54°36' W 008°27'2 3.0
2017-Jun-25 11:58N 54°36' W 008°29'1 2.9
2017-Jun-25 11:27N 54°35' W 008°32'1 2.7
2017-Jun-25 10:54N 54°36' W 008°34'0 1.1
2017-Jun-25 10:29N 54°36' W 008°35'0 0.1
2017-Jun-25 09:02N 54°36' W 008°35'0 0.4
2017-Jun-25 09:00N 54°36' W 008°35'4 7.2
2017-Jun-25 08:30N 54°36' W 008°29'1 2.6
2017-Jun-25 07:59N 54°37' W 008°27'2 3.0
2017-Jun-25 07:28N 54°38' W 008°27'0 0.2
2017-Jun-25 07:00N 54°38' W 008°27'0 0.0
2017-Jun-24 16:06N 54°38' W 008°27'0 0.0
2017-Jun-24 15:59N 54°38' W 008°27'1 1.7
2017-Jun-24 15:29N 54°37' W 008°27'3 5.0
2017-Jun-24 14:56N 54°34' W 008°26'1 0.6
2017-Jun-24 13:59N 54°35' W 008°25'3 3.5
2017-Jun-24 13:13N 54°34' W 008°30'2 8.3
2017-Jun-24 12:58N 54°35' W 008°33'2 4.5
2017-Jun-24 12:28N 54°36' W 008°36'1 0.9
2017-Jun-24 11:16N 54°36' W 008°34'4 3.1
2017-Jun-24 09:59N 54°36' W 008°28'1 1.1
2017-Jun-24 09:29N 54°37' W 008°27'0 0.4
2017-Jun-24 09:00N 54°37' W 008°27'2 2.4
2017-Jun-24 08:23N 54°38' W 008°27'0 0.0
2017-Jun-24 07:59N 54°38' W 008°27'0 0.0
2017-Jun-24 07:26N 54°38' W 008°27'  
2017-Jun-20 15:05N 54°38' W 008°27'0 0.1
2017-Jun-20 15:00N 54°38' W 008°27'1 2.5
2017-Jun-20 14:29N 54°37' W 008°27'3 1.1
2017-Jun-20 11:38N 54°34' W 008°29'1 4.8
2017-Jun-20 11:31N 54°34' W 008°29'1 1.6
2017-Jun-20 10:51N 54°35' W 008°27'0 1.0
2017-Jun-20 10:28N 54°35' W 008°28'0 0.1
2017-Jun-20 09:59N 54°35' W 008°28'1 2.6
2017-Jun-20 09:24N 54°36' W 008°29'2 3.8
2017-Jun-20 08:58N 54°37' W 008°27'0 1.0
2017-Jun-20 08:30N 54°37' W 008°26'1 2.0
2017-Jun-20 08:00N 54°38' W 008°27'0 0.1
2017-Jun-20 07:29N 54°38' W 008°27'0 0.0
2017-Jun-19 10:15N 54°38' W 008°27'0 0.0
2017-Jun-19 10:00N 54°38' W 008°27'  

Dump ship's entire track history